Portada
METAR-TAF:

METAR-TAF

Aeroports :

Taba, Egipte

latitud: 29-35-57N, longitud: 034-46-36E, altitud: 749 m

METAR: manca

Hora: 00:47 (22:47 UTC)

Pronòstic

L'informe es va fer fa 5 hores i 47 minuts, a les 17:00 UTC
Pronòstic vàlid del 13 a les 18 UTC al 14 a les 24 UTC
Vent 7 kt del Sud
Visibilitat: 6000 m
Evolucionant progressivament
l' 13 a les 18 UTC al 13 a les 20 UTC
Vent 3 kt amb direcció variable
Evolucionant progressivament
l' 14 a les 09 UTC al 14 a les 11 UTC
Vent 10 kt del Oest/Sud-Oest
Visibilitat 10 km o més
Núvols disperses a una alçada de 2000 ft

TAF: HETB 131700Z 1318/1424 17007KT 6000 NSC BECMG 1318/1320 VRB03KT BECMG 1409/1411 25010KT 9999 SCT020

Observacions i pronòstics meteorològics de més de 4000 aeroports (METAR i TAF).

Les estacions disponibles són els punts grocs i vermells al mapa.

Posi el ratolí al punt desitjat per veure el nom de l'estació.

Feu clic per veure les observacions i els pronòstics meteorològics.

Per canviar el mapa: feu clic els botons verds amb una creu de color negre per apropar; al botó verd amb un guió per allunyar la imatge; o en les fletxes verdes per a mapes adjacents.


METAR-TAF: